Time;durP1;ratioP1;P1;durP2;ratioP2;P2;SDS_P1;SDS_P2;PMS_P1;PMS_P2;Temp;Humidity;BMP_temperature;BMP_pressure;BME280_temperature;BME280_humidity;BME280_pressure;Samples;Min_cycle;Max_cycle;Signal;HPM_P1;HPM_P2
2023/11/18 00:00:49;;;;;;;73.93;30.10;;;4.10;99.90;;;;;;5051919;28;20183;-69
2023/11/18 00:03:15;;;;;;;79.17;35.37;;;4.10;99.90;;;;;;5051612;28;20202;-70
2023/11/18 00:05:40;;;;;;;79.53;33.07;;;4.10;99.90;;;;;;5051930;28;20181;-70
2023/11/18 00:08:06;;;;;;;79.73;30.67;;;4.10;99.90;;;;;;5051176;28;20174;-70
2023/11/18 00:10:32;;;;;;;83.77;33.37;;;4.10;99.90;;;;;;5033408;28;20263;-69
2023/11/18 00:12:57;;;;;;;81.57;31.97;;;4.10;99.90;;;;;;5051623;28;20167;-71
2023/11/18 00:15:23;;;;;;;105.27;33.07;;;4.10;99.90;;;;;;5051409;28;20179;-69
2023/11/18 00:17:49;;;;;;;94.00;32.77;;;4.10;99.90;;;;;;5051377;28;20167;-69
2023/11/18 00:20:16;;;;;;;92.47;31.50;;;4.00;99.90;;;;;;5051184;28;20194;-69
2023/11/18 00:22:42;;;;;;;94.80;32.47;;;4.00;99.90;;;;;;5051290;28;20175;-70
2023/11/18 00:25:08;;;;;;;80.07;30.67;;;4.10;99.90;;;;;;5051110;28;20213;-70
2023/11/18 00:27:37;;;;;;;101.77;34.17;;;4.00;99.90;;;;;;5051262;28;20174;-70
2023/11/18 00:30:08;;;;;;;83.30;30.43;;;4.00;99.90;;;;;;5051089;28;20206;-70
2023/11/18 00:32:34;;;;;;;89.40;30.83;;;4.00;99.90;;;;;;5051371;28;20171;-70
2023/11/18 00:35:00;;;;;;;103.13;32.07;;;4.00;99.90;;;;;;5051227;28;20258;-69
2023/11/18 00:37:26;;;;;;;76.10;28.73;;;4.00;99.90;;;;;;5051204;28;20262;-70
2023/11/18 00:39:52;;;;;;;117.83;33.57;;;3.90;99.90;;;;;;5051199;28;20328;-69
2023/11/18 00:42:18;;;;;;;123.57;32.93;;;4.00;99.90;;;;;;5051233;28;20246;-70
2023/11/18 00:44:43;;;;;;;144.23;33.00;;;4.00;99.90;;;;;;5051256;28;20175;-70
2023/11/18 00:47:09;;;;;;;122.07;31.30;;;4.00;99.90;;;;;;5050887;28;20322;-70
2023/11/18 00:49:35;;;;;;;125.13;31.20;;;4.00;99.90;;;;;;5050674;28;20206;-70
2023/11/18 00:52:00;;;;;;;146.63;34.60;;;4.00;99.90;;;;;;5050832;28;20710;-70
2023/11/18 00:54:26;;;;;;;191.40;36.77;;;4.00;99.90;;;;;;5050746;28;20628;-71
2023/11/18 00:56:52;;;;;;;125.67;32.73;;;4.00;99.90;;;;;;5052881;28;20171;-70
2023/11/18 00:59:18;;;;;;;151.63;35.47;;;4.10;99.90;;;;;;5054710;28;20658;-70
2023/11/18 01:01:43;;;;;;;166.33;32.87;;;4.10;99.90;;;;;;5055090;28;20547;-71
2023/11/18 01:04:09;;;;;;;162.77;34.50;;;4.20;99.90;;;;;;5054856;28;20175;-70
2023/11/18 01:06:34;;;;;;;135.73;33.43;;;4.20;99.90;;;;;;5055219;28;20175;-70
2023/11/18 01:09:00;;;;;;;131.63;32.03;;;4.20;99.90;;;;;;5054777;28;20171;-69
2023/11/18 01:11:26;;;;;;;127.77;31.87;;;4.20;99.90;;;;;;5054918;28;20217;-70
2023/11/18 01:13:54;;;;;;;115.73;33.00;;;4.30;99.90;;;;;;5054659;28;20181;-70
2023/11/18 01:16:20;;;;;;;138.10;33.73;;;4.30;99.90;;;;;;5055106;28;20253;-69
2023/11/18 01:18:46;;;;;;;149.97;32.97;;;4.30;99.90;;;;;;5054570;28;20175;-69
2023/11/18 01:21:12;;;;;;;160.37;34.60;;;4.30;99.90;;;;;;5054721;28;20198;-69
2023/11/18 01:23:38;;;;;;;134.10;33.40;;;4.40;99.90;;;;;;5054399;28;20555;-69
2023/11/18 01:26:05;;;;;;;129.10;32.03;;;4.40;99.90;;;;;;5054646;28;20171;-69
2023/11/18 01:28:42;;;;;;;130.33;34.47;;;4.40;99.90;;;;;;5054507;28;20228;-69
2023/11/18 01:31:12;;;;;;;122.63;32.40;;;4.40;99.90;;;;;;5054517;28;20209;-69
2023/11/18 01:33:40;;;;;;;114.37;32.53;;;4.50;99.90;;;;;;5054709;28;20198;-69
2023/11/18 01:36:08;;;;;;;113.27;32.33;;;4.50;99.90;;;;;;5054604;28;20632;-69
2023/11/18 01:38:34;;;;;;;118.83;32.37;;;4.50;99.90;;;;;;5054099;28;20632;-69
2023/11/18 01:41:00;;;;;;;115.40;30.93;;;4.50;99.90;;;;;;5054380;28;20681;-69
2023/11/18 01:43:26;;;;;;;126.27;32.60;;;4.60;99.90;;;;;;5054154;28;20179;-69
2023/11/18 01:45:53;;;;;;;120.57;31.60;;;4.60;99.90;;;;;;5054405;28;20670;-70
2023/11/18 01:48:22;;;;;;;120.00;32.50;;;4.60;99.90;;;;;;5053681;28;20225;-70
2023/11/18 01:50:49;;;;;;;128.50;33.80;;;4.70;99.90;;;;;;5054141;28;20289;-70
2023/11/18 01:53:15;;;;;;;122.60;31.57;;;4.70;99.90;;;;;;5053899;28;20206;-70
2023/11/18 01:55:41;;;;;;;122.90;31.53;;;4.70;99.90;;;;;;5053862;28;20206;-70
2023/11/18 01:58:10;;;;;;;119.80;31.27;;;4.80;99.90;;;;;;5053642;28;20170;-70
2023/11/18 02:00:39;;;;;;;113.70;31.57;;;4.80;99.90;;;;;;5053965;28;20268;-70
2023/11/18 02:03:05;;;;;;;119.10;32.20;;;4.80;99.90;;;;;;5053965;28;20178;-70
2023/11/18 02:05:35;;;;;;;120.47;31.60;;;4.90;99.90;;;;;;5053877;28;21021;-70
2023/11/18 02:08:06;;;;;;;127.33;32.70;;;4.90;99.90;;;;;;5052302;28;20513;-70
2023/11/18 02:10:40;;;;;;;129.63;32.07;;;4.90;99.90;;;;;;5053677;28;20203;-70
2023/11/18 02:13:25;;;;;;;117.77;31.73;;;4.90;99.90;;;;;;5053903;28;20159;-70
2023/11/18 02:15:57;;;;;;;122.20;33.13;;;4.90;99.90;;;;;;5053625;28;20175;-70
2023/11/18 02:18:29;;;;;;;127.23;32.57;;;4.90;99.90;;;;;;5053359;28;20167;-70
2023/11/18 02:20:58;;;;;;;129.03;31.27;;;5.00;99.90;;;;;;5053730;28;20237;-70
2023/11/18 02:23:26;;;;;;;118.33;33.40;;;4.90;99.90;;;;;;5053518;28;20175;-70
2023/11/18 02:25:52;;;;;;;128.60;33.73;;;4.90;99.90;;;;;;5054007;28;20649;-70
2023/11/18 02:28:19;;;;;;;137.27;33.93;;;4.90;99.90;;;;;;5053326;28;20213;-70
2023/11/18 02:30:45;;;;;;;125.03;34.60;;;4.90;99.90;;;;;;5053918;28;20683;-70
2023/11/18 02:33:44;;;;;;;109.73;32.60;;;4.90;99.90;;;;;;5053438;28;20174;-70
2023/11/18 02:36:22;;;;;;;124.07;33.47;;;4.90;99.90;;;;;;5053185;28;20614;-70
2023/11/18 02:38:50;;;;;;;133.93;34.63;;;5.00;99.90;;;;;;5052932;28;20579;-70
2023/11/18 02:41:18;;;;;;;116.77;32.53;;;4.90;99.90;;;;;;5052717;28;20222;-70
2023/11/18 02:43:45;;;;;;;110.53;35.00;;;5.00;99.90;;;;;;5053095;28;20290;-70
2023/11/18 02:46:14;;;;;;;125.50;34.17;;;5.00;99.90;;;;;;5053007;28;20607;-70
2023/11/18 02:48:41;;;;;;;117.27;33.87;;;4.90;99.90;;;;;;5052949;28;20202;-70
2023/11/18 02:51:08;;;;;;;117.90;34.07;;;4.90;99.90;;;;;;5052777;28;20293;-70
2023/11/18 02:53:34;;;;;;;116.23;33.23;;;4.90;99.90;;;;;;5052879;28;20171;-70
2023/11/18 02:56:02;;;;;;;120.97;34.10;;;4.90;99.90;;;;;;5052720;28;20171;-70
2023/11/18 02:58:29;;;;;;;110.43;34.53;;;4.90;99.90;;;;;;5052427;28;20182;-70
2023/11/18 03:00:55;;;;;;;116.73;34.07;;;4.90;99.90;;;;;;5052793;28;20326;-70
2023/11/18 03:03:21;;;;;;;133.23;33.77;;;4.90;99.90;;;;;;5052709;28;20269;-70
2023/11/18 03:05:49;;;;;;;111.97;33.23;;;5.00;99.90;;;;;;5052709;28;20171;-70
2023/11/18 03:08:15;;;;;;;121.33;34.53;;;5.00;99.90;;;;;;5052294;28;20174;-70
2023/11/18 03:10:44;;;;;;;102.60;32.63;;;5.00;99.90;;;;;;5052276;28;20699;-70
2023/11/18 03:13:12;;;;;;;123.47;32.87;;;5.00;99.90;;;;;;5052628;28;20195;-70
2023/11/18 03:15:37;;;;;;;115.60;33.77;;;5.00;99.90;;;;;;5052804;28;20229;-70
2023/11/18 03:18:05;;;;;;;107.70;33.33;;;5.10;99.90;;;;;;5052112;28;20166;-70
2023/11/18 03:20:33;;;;;;;111.23;31.90;;;5.10;99.90;;;;;;5052251;28;20191;-70
2023/11/18 03:23:03;;;;;;;119.27;32.53;;;5.10;99.90;;;;;;5052799;28;20627;-70
2023/11/18 03:25:28;;;;;;;103.10;33.93;;;5.10;99.90;;;;;;5052748;28;20566;-70
2023/11/18 03:27:54;;;;;;;106.07;33.13;;;5.10;99.90;;;;;;5052335;28;20237;-70
2023/11/18 03:30:20;;;;;;;102.67;31.60;;;5.10;99.90;;;;;;5052138;28;20199;-70
2023/11/18 03:32:46;;;;;;;105.03;32.60;;;5.10;99.90;;;;;;5052125;28;20197;-70
2023/11/18 03:35:12;;;;;;;103.93;31.90;;;5.00;99.90;;;;;;5051123;28;20167;-69
2023/11/18 03:37:41;;;;;;;105.90;33.10;;;5.00;99.90;;;;;;5050962;28;20220;-69
2023/11/18 03:40:11;;;;;;;102.60;32.17;;;5.00;99.90;;;;;;5050947;28;20209;-69
2023/11/18 03:42:37;;;;;;;100.10;30.77;;;5.00;99.90;;;;;;5051595;28;20179;-70
2023/11/18 03:45:04;;;;;;;109.63;33.63;;;5.00;99.90;;;;;;5051762;28;20228;-69
2023/11/18 03:47:30;;;;;;;109.50;32.77;;;5.00;99.90;;;;;;5051543;28;20190;-70
2023/11/18 03:49:56;;;;;;;98.40;31.70;;;4.90;99.90;;;;;;5052027;28;20274;-70
2023/11/18 03:52:22;;;;;;;109.47;32.93;;;4.90;99.90;;;;;;5051844;28;20523;-70
2023/11/18 03:54:48;;;;;;;103.40;31.60;;;4.90;99.90;;;;;;5051964;28;20193;-70
2023/11/18 03:57:14;;;;;;;100.00;32.63;;;4.90;99.90;;;;;;5051918;28;20253;-70
2023/11/18 03:59:41;;;;;;;99.60;31.17;;;4.90;99.90;;;;;;5051471;28;20186;-70
2023/11/18 04:02:07;;;;;;;88.00;30.30;;;4.90;99.90;;;;;;5051538;28;20204;-70
2023/11/18 04:04:33;;;;;;;92.23;32.30;;;4.80;99.90;;;;;;5051681;28;20171;-70
2023/11/18 04:07:00;;;;;;;104.17;32.17;;;4.80;99.90;;;;;;5052038;28;20181;-70
2023/11/18 04:09:26;;;;;;;113.90;32.53;;;4.80;99.90;;;;;;5051426;28;20608;-69
2023/11/18 04:11:52;;;;;;;103.27;33.60;;;4.70;99.90;;;;;;5051237;28;20211;-69
2023/11/18 04:14:18;;;;;;;95.80;34.07;;;4.70;99.90;;;;;;5051439;28;20721;-69
2023/11/18 04:16:45;;;;;;;92.73;31.10;;;4.70;99.90;;;;;;5051647;28;20284;-69
2023/11/18 04:19:12;;;;;;;108.07;33.23;;;4.70;99.90;;;;;;5051317;28;20644;-69
2023/11/18 04:21:38;;;;;;;94.10;31.50;;;4.70;99.90;;;;;;5051522;28;20193;-69
2023/11/18 04:24:05;;;;;;;99.80;30.60;;;4.70;99.90;;;;;;5051374;28;20585;-69
2023/11/18 04:26:31;;;;;;;87.73;31.53;;;4.70;99.90;;;;;;5051339;28;20178;-69
2023/11/18 04:28:58;;;;;;;99.47;31.67;;;4.70;99.90;;;;;;5051371;28;20727;-69
2023/11/18 04:31:24;;;;;;;93.90;30.40;;;4.70;99.90;;;;;;5050293;28;20198;-69
2023/11/18 04:33:50;;;;;;;95.97;31.20;;;4.60;99.90;;;;;;5050485;28;20178;-70
2023/11/18 04:36:16;;;;;;;100.30;31.87;;;4.60;99.90;;;;;;5051023;28;20171;-70
2023/11/18 04:38:42;;;;;;;101.33;31.90;;;4.60;99.90;;;;;;5051155;28;20250;-70
2023/11/18 04:41:08;;;;;;;101.30;32.00;;;4.60;99.90;;;;;;5051090;28;20199;-70
2023/11/18 04:43:33;;;;;;;96.77;31.03;;;4.60;99.90;;;;;;5051104;28;20179;-70
2023/11/18 04:45:59;;;;;;;97.10;33.27;;;4.50;99.90;;;;;;5050959;28;20170;-70
2023/11/18 04:48:25;;;;;;;94.70;32.40;;;4.60;99.90;;;;;;5050632;28;20187;-70
2023/11/18 04:50:51;;;;;;;94.97;31.30;;;4.60;99.90;;;;;;5050999;28;20209;-70
2023/11/18 04:53:16;;;;;;;103.70;31.63;;;4.50;99.90;;;;;;5050796;28;20556;-70
2023/11/18 04:55:42;;;;;;;106.07;33.27;;;4.60;99.90;;;;;;5050986;28;20174;-70
2023/11/18 04:58:09;;;;;;;95.57;31.03;;;4.50;99.90;;;;;;5050886;28;20364;-70
2023/11/18 05:00:38;;;;;;;93.33;30.30;;;4.50;99.90;;;;;;5050948;28;20680;-71
2023/11/18 05:03:05;;;;;;;89.73;30.80;;;4.40;99.90;;;;;;5050710;28;20570;-69
2023/11/18 05:05:31;;;;;;;93.97;28.63;;;4.40;99.90;;;;;;5051178;28;20640;-69
2023/11/18 05:07:57;;;;;;;102.10;31.50;;;4.40;99.90;;;;;;5050838;28;20170;-70
2023/11/18 05:10:23;;;;;;;100.63;31.37;;;4.40;99.90;;;;;;5050678;28;20208;-69
2023/11/18 05:12:55;;;;;;;87.57;31.97;;;4.30;99.90;;;;;;5050480;28;20174;-70
2023/11/18 05:15:24;;;;;;;102.30;31.50;;;4.30;99.90;;;;;;5050913;28;20189;-69
2023/11/18 05:17:50;;;;;;;103.07;31.50;;;4.40;99.90;;;;;;5050543;28;20616;-69
2023/11/18 05:20:17;;;;;;;107.83;32.93;;;4.40;99.90;;;;;;5050402;28;20581;-70
2023/11/18 05:22:43;;;;;;;98.50;30.43;;;4.40;99.90;;;;;;5050831;28;20199;-70
2023/11/18 05:25:09;;;;;;;105.80;31.37;;;4.40;99.90;;;;;;5050629;28;20668;-70
2023/11/18 05:27:35;;;;;;;101.70;31.87;;;4.40;99.90;;;;;;5051049;28;20179;-70
2023/11/18 05:30:01;;;;;;;93.53;30.37;;;4.40;99.90;;;;;;5050371;28;20306;-70
2023/11/18 05:32:28;;;;;;;86.10;29.97;;;4.40;99.90;;;;;;5050552;28;20691;-70
2023/11/18 05:34:54;;;;;;;109.37;31.87;;;4.40;99.90;;;;;;5050758;28;20170;-70
2023/11/18 05:37:23;;;;;;;102.17;31.47;;;4.40;99.90;;;;;;5050342;28;20193;-70
2023/11/18 05:39:53;;;;;;;103.97;32.10;;;4.40;99.90;;;;;;5050479;28;20171;-69
2023/11/18 05:42:19;;;;;;;95.70;31.23;;;4.40;99.90;;;;;;5051453;28;20656;-69
2023/11/18 05:44:44;;;;;;;104.40;31.97;;;4.50;99.90;;;;;;5054448;28;20206;-70
2023/11/18 05:47:13;;;;;;;96.13;30.47;;;4.50;99.90;;;;;;5054320;28;20521;-70
2023/11/18 05:49:39;;;;;;;101.67;32.83;;;4.50;99.90;;;;;;5054021;28;20613;-71
2023/11/18 05:52:05;;;;;;;102.20;31.57;;;4.50;99.90;;;;;;5054391;28;20182;-70
2023/11/18 05:54:30;;;;;;;96.50;30.63;;;4.50;99.90;;;;;;5054061;28;20206;-71
2023/11/18 05:56:59;;;;;;;97.10;31.63;;;4.60;99.90;;;;;;5054290;28;20171;-71
2023/11/18 05:59:26;;;;;;;97.23;32.23;;;4.60;99.90;;;;;;5053903;28;20655;-70
2023/11/18 06:01:52;;;;;;;107.47;32.43;;;4.60;99.90;;;;;;5054138;28;20561;-70
2023/11/18 06:04:18;;;;;;;103.63;31.03;;;4.60;99.90;;;;;;5053709;28;20167;-70
2023/11/18 06:06:43;;;;;;;100.87;31.87;;;4.70;99.90;;;;;;5053814;28;20655;-70
2023/11/18 06:09:20;;;;;;;104.60;31.17;;;4.70;99.90;;;;;;5053629;28;20179;-70
2023/11/18 06:11:47;;;;;;;95.17;32.67;;;4.70;99.90;;;;;;5053745;28;20264;-70
2023/11/18 06:14:12;;;;;;;89.27;31.33;;;4.70;99.90;;;;;;5053668;28;20179;-70
2023/11/18 06:16:41;;;;;;;96.60;31.33;;;4.80;99.90;;;;;;5053641;28;20174;-70
2023/11/18 06:19:09;;;;;;;97.60;29.73;;;4.80;99.90;;;;;;5053752;28;20264;-70
2023/11/18 06:21:36;;;;;;;92.73;30.70;;;4.80;99.90;;;;;;5053700;28;20207;-70
2023/11/18 06:24:05;;;;;;;94.07;32.17;;;4.80;99.90;;;;;;5053521;28;20236;-70
2023/11/18 06:26:31;;;;;;;83.50;29.70;;;4.80;99.90;;;;;;5053803;28;20178;-70
2023/11/18 06:28:57;;;;;;;92.83;28.83;;;4.80;99.90;;;;;;5053415;28;20636;-70
2023/11/18 06:31:23;;;;;;;81.87;30.17;;;4.80;99.90;;;;;;5053174;28;20582;-70
2023/11/18 06:33:50;;;;;;;95.27;29.10;;;4.90;99.90;;;;;;5053437;28;20181;-71
2023/11/18 06:36:18;;;;;;;88.13;28.80;;;4.90;99.90;;;;;;5053461;28;20171;-69
2023/11/18 06:38:44;;;;;;;76.03;31.17;;;4.90;99.90;;;;;;5052732;28;20187;-69
2023/11/18 06:41:13;;;;;;;83.83;28.80;;;4.90;99.90;;;;;;5053320;28;20221;-69
2023/11/18 06:43:51;;;;;;;86.73;28.83;;;4.90;99.90;;;;;;5052586;28;20182;-69
2023/11/18 06:46:39;;;;;;;85.03;29.33;;;5.00;99.90;;;;;;5053220;28;20550;-70
2023/11/18 06:49:06;;;;;;;80.80;29.77;;;4.90;99.90;;;;;;5052866;28;20600;-69
2023/11/18 06:51:35;;;;;;;74.17;29.00;;;4.90;99.90;;;;;;5052036;28;20297;-70
2023/11/18 06:54:08;;;;;;;76.47;29.13;;;4.90;99.90;;;;;;5052204;28;20571;-69
2023/11/18 06:56:36;;;;;;;82.53;29.13;;;4.90;99.90;;;;;;5052647;28;20642;-70
2023/11/18 06:59:02;;;;;;;87.83;28.27;;;4.90;99.90;;;;;;5052539;28;20167;-69
2023/11/18 07:01:30;;;;;;;72.60;27.73;;;5.00;99.90;;;;;;5050957;28;20541;-69
2023/11/18 07:03:56;;;;;;;74.07;28.23;;;5.00;99.90;;;;;;5052563;28;20175;-70
2023/11/18 07:06:22;;;;;;;87.10;28.00;;;5.00;99.90;;;;;;5052551;28;20257;-69
2023/11/18 07:08:51;;;;;;;72.60;29.00;;;5.00;99.90;;;;;;5051845;28;20678;-71
2023/11/18 07:11:17;;;;;;;76.63;27.43;;;5.00;99.90;;;;;;5052370;28;20542;-70
2023/11/18 07:13:43;;;;;;;66.33;25.03;;;5.00;99.90;;;;;;5052217;28;20329;-70
2023/11/18 07:16:09;;;;;;;65.63;27.47;;;5.00;99.90;;;;;;5052630;28;20690;-70
2023/11/18 07:18:36;;;;;;;70.87;26.20;;;5.10;99.90;;;;;;5051704;28;20183;-69
2023/11/18 07:21:05;;;;;;;71.13;26.13;;;5.10;99.90;;;;;;5052345;28;20202;-69
2023/11/18 07:23:31;;;;;;;69.93;27.03;;;5.10;99.90;;;;;;5052333;28;20652;-70
2023/11/18 07:25:57;;;;;;;57.10;26.03;;;5.10;99.90;;;;;;5052378;28;20202;-70
2023/11/18 07:28:23;;;;;;;67.03;26.37;;;5.20;99.90;;;;;;5051867;28;20202;-71
2023/11/18 07:30:49;;;;;;;66.77;24.80;;;5.10;99.90;;;;;;5051949;28;20209;-69
2023/11/18 07:33:15;;;;;;;63.77;26.60;;;5.20;99.90;;;;;;5051672;28;20179;-70
2023/11/18 07:35:42;;;;;;;57.67;25.53;;;5.20;99.90;;;;;;5052036;28;20167;-70
2023/11/18 07:38:07;;;;;;;63.67;24.60;;;5.20;99.90;;;;;;5051903;28;20274;-70
2023/11/18 07:40:37;;;;;;;67.00;26.97;;;5.30;99.90;;;;;;5051708;28;20962;-69
2023/11/18 07:43:03;;;;;;;65.20;26.50;;;5.30;99.90;;;;;;5052000;28;20179;-70
2023/11/18 07:45:37;;;;;;;59.00;26.67;;;5.30;99.90;;;;;;5051660;28;20171;-69
2023/11/18 07:48:08;;;;;;;55.20;25.33;;;5.40;99.90;;;;;;5050843;28;20273;-70
2023/11/18 07:50:35;;;;;;;58.77;25.83;;;5.40;99.90;;;;;;5051676;28;20202;-69
2023/11/18 07:53:01;;;;;;;66.97;25.40;;;5.50;99.90;;;;;;5051619;28;20178;-70
2023/11/18 07:55:28;;;;;;;70.03;28.27;;;5.50;99.90;;;;;;5050860;28;20664;-70
2023/11/18 07:57:53;;;;;;;59.87;25.93;;;5.60;99.90;;;;;;5051656;28;20647;-70
2023/11/18 08:00:19;;;;;;;61.77;27.33;;;5.60;99.90;;;;;;5052185;28;20194;-70
2023/11/18 08:02:45;;;;;;;70.60;27.23;;;5.60;99.90;;;;;;5051397;28;20900;-69
2023/11/18 08:05:15;;;;;;;64.60;27.40;;;5.60;99.90;;;;;;5051444;28;20171;-69
2023/11/18 08:07:41;;;;;;;67.03;27.60;;;5.60;99.90;;;;;;5050778;28;20171;-70
2023/11/18 08:10:12;;;;;;;57.53;25.00;;;5.70;99.90;;;;;;5051048;28;20213;-70
2023/11/18 08:12:38;;;;;;;56.97;27.07;;;5.70;99.90;;;;;;5051480;28;20171;-70
2023/11/18 08:15:07;;;;;;;62.33;26.53;;;5.70;99.90;;;;;;5049320;28;20171;-71
2023/11/18 08:17:34;;;;;;;60.37;25.60;;;5.70;99.90;;;;;;5051641;28;20163;-71
2023/11/18 08:20:00;;;;;;;64.47;25.43;;;5.70;99.90;;;;;;5051051;28;20770;-71
2023/11/18 08:22:25;;;;;;;56.80;25.73;;;5.80;99.90;;;;;;5051228;28;20206;-71
2023/11/18 08:24:51;;;;;;;56.97;25.37;;;5.80;99.90;;;;;;5051040;28;20201;-70
2023/11/18 08:27:17;;;;;;;56.70;25.97;;;5.80;99.90;;;;;;5051131;28;20174;-71
2023/11/18 08:29:43;;;;;;;48.60;23.90;;;5.90;99.90;;;;;;5050313;28;20742;-71
2023/11/18 08:32:09;;;;;;;55.27;25.80;;;5.90;99.90;;;;;;5051417;28;20253;-71
2023/11/18 08:34:37;;;;;;;58.77;24.73;;;5.90;99.90;;;;;;5050867;28;20171;-71
2023/11/18 08:37:04;;;;;;;51.73;23.73;;;5.90;99.90;;;;;;5051051;28;20558;-71
2023/11/18 08:39:30;;;;;;;57.83;22.93;;;6.00;99.90;;;;;;5048483;28;20163;-71
2023/11/18 08:41:56;;;;;;;53.93;24.70;;;6.10;99.90;;;;;;5047968;28;20701;-71
2023/11/18 08:44:22;;;;;;;49.10;24.17;;;6.10;99.90;;;;;;5045494;28;20175;-71
2023/11/18 08:46:48;;;;;;;48.17;23.60;;;6.20;99.90;;;;;;5030741;28;20160;-71
2023/11/18 08:49:21;;;;;;;48.70;22.63;;;6.20;99.90;;;;;;5031183;28;20170;-71
2023/11/18 08:51:55;;;;;;;43.13;21.97;;;6.30;99.90;;;;;;5030537;28;20203;-71
2023/11/18 08:54:22;;;;;;;47.53;22.87;;;6.30;99.90;;;;;;5031090;28;20171;-71
2023/11/18 08:56:51;;;;;;;48.07;22.50;;;6.30;99.90;;;;;;5030911;28;20621;-71
2023/11/18 08:59:24;;;;;;;47.53;22.27;;;6.30;99.90;;;;;;5030729;28;20534;-71
2023/11/18 09:01:59;;;;;;;43.03;22.27;;;6.30;99.90;;;;;;5048889;28;20198;-71
2023/11/18 09:04:27;;;;;;;48.97;21.73;;;6.40;99.90;;;;;;5050706;28;20266;-71
2023/11/18 09:07:00;;;;;;;40.63;21.17;;;6.40;99.90;;;;;;5051037;28;20179;-71
2023/11/18 09:09:28;;;;;;;49.23;23.20;;;6.50;99.90;;;;;;5050517;28;20239;-71
2023/11/18 09:11:57;;;;;;;52.20;21.67;;;6.50;99.90;;;;;;5050461;28;20214;-71
2023/11/18 09:14:26;;;;;;;44.53;22.23;;;6.50;99.90;;;;;;5050664;28;20171;-71
2023/11/18 09:16:55;;;;;;;44.53;22.17;;;6.50;99.90;;;;;;5050726;28;20195;-71
2023/11/18 09:19:21;;;;;;;44.77;22.27;;;6.50;99.90;;;;;;5054713;28;20178;-71
2023/11/18 09:21:47;;;;;;;42.37;21.03;;;6.60;99.90;;;;;;5054915;28;20542;-71
2023/11/18 09:24:14;;;;;;;42.30;22.33;;;6.60;99.90;;;;;;5054862;28;20552;-71
2023/11/18 09:26:40;;;;;;;49.90;23.43;;;6.60;99.90;;;;;;5054625;28;20167;-71
2023/11/18 09:29:08;;;;;;;44.13;22.90;;;6.60;99.90;;;;;;5054516;28;20174;-71
2023/11/18 09:31:36;;;;;;;38.60;21.60;;;6.60;99.90;;;;;;5054454;28;20203;-71
2023/11/18 09:34:06;;;;;;;45.97;21.73;;;6.60;99.90;;;;;;5054909;28;20174;-72
2023/11/18 09:36:33;;;;;;;43.17;21.80;;;6.70;99.90;;;;;;5054382;28;20175;-71
2023/11/18 09:38:59;;;;;;;45.03;21.13;;;6.70;99.90;;;;;;5054211;28;20182;-71
2023/11/18 09:41:26;;;;;;;43.03;21.20;;;6.80;99.90;;;;;;5054346;28;20269;-71
2023/11/18 09:43:54;;;;;;;44.73;20.80;;;6.90;99.90;;;;;;5054244;28;20597;-71
2023/11/18 09:46:24;;;;;;;45.30;21.00;;;6.90;99.90;;;;;;5054263;28;20174;-71
2023/11/18 09:48:59;;;;;;;40.13;21.30;;;7.00;99.90;;;;;;5053833;28;20597;-71
2023/11/18 09:51:36;;;;;;;39.43;20.63;;;7.00;99.90;;;;;;5054134;28;20202;-71
2023/11/18 09:54:07;;;;;;;36.50;19.20;;;7.10;99.90;;;;;;5054071;28;20213;-71
2023/11/18 09:56:57;;;;;;;43.83;19.87;;;7.20;99.90;;;;;;5054107;28;20228;-71
2023/11/18 09:59:35;;;;;;;38.83;21.33;;;7.20;99.90;;;;;;5053815;28;20183;-71
2023/11/18 10:02:10;;;;;;;38.63;20.03;;;7.30;99.90;;;;;;5054088;28;20533;-70
2023/11/18 10:04:39;;;;;;;39.77;19.93;;;7.30;99.90;;;;;;5053699;28;20183;-70
2023/11/18 10:07:10;;;;;;;37.27;19.67;;;7.30;99.90;;;;;;5053984;28;20408;-71
2023/11/18 10:09:39;;;;;;;35.63;19.27;;;7.30;99.90;;;;;;5053512;28;20171;-71
2023/11/18 10:12:08;;;;;;;33.60;20.13;;;7.40;99.90;;;;;;5053811;28;20170;-71
2023/11/18 10:14:34;;;;;;;34.33;21.00;;;7.40;99.90;;;;;;5053837;28;20652;-71
2023/11/18 10:17:07;;;;;;;33.37;19.30;;;7.40;99.90;;;;;;5053685;28;20175;-71
2023/11/18 10:19:52;;;;;;;32.30;20.30;;;7.40;99.90;;;;;;5053198;28;20625;-71
2023/11/18 10:22:26;;;;;;;37.33;19.70;;;7.40;99.90;;;;;;5053734;28;20163;-71
2023/11/18 10:24:54;;;;;;;38.83;19.87;;;7.40;99.90;;;;;;5053477;28;20691;-71
2023/11/18 10:27:27;;;;;;;38.80;19.70;;;7.40;99.90;;;;;;5053522;28;20602;-71
2023/11/18 10:29:56;;;;;;;35.60;18.73;;;7.40;99.90;;;;;;5052217;28;20203;-72
2023/11/18 10:32:27;;;;;;;34.00;19.57;;;7.50;99.90;;;;;;5053232;28;20265;-71
2023/11/18 10:34:57;;;;;;;37.27;19.37;;;7.40;99.90;;;;;;5053362;28;20171;-72
2023/11/18 10:37:23;;;;;;;31.50;18.00;;;7.40;99.90;;;;;;5053377;28;20185;-72
2023/11/18 10:39:52;;;;;;;30.87;19.67;;;7.50;99.90;;;;;;5052928;28;20240;-71
2023/11/18 10:42:18;;;;;;;30.63;18.43;;;7.50;99.90;;;;;;5053221;28;20588;-72
2023/11/18 10:44:57;;;;;;;31.70;18.47;;;7.60;99.90;;;;;;5052978;28;20543;-72
2023/11/18 10:47:27;;;;;;;39.40;18.07;;;7.60;99.90;;;;;;5053305;28;20266;-72
2023/11/18 10:49:56;;;;;;;34.43;19.40;;;7.70;99.90;;;;;;5052791;28;20605;-72
2023/11/18 10:52:23;;;;;;;32.93;18.47;;;7.70;99.90;;;;;;5053167;28;20227;-72
2023/11/18 10:54:54;;;;;;;32.83;18.00;;;7.70;99.90;;;;;;5052281;28;20212;-72
2023/11/18 10:57:21;;;;;;;27.87;17.53;;;7.80;99.90;;;;;;5053076;28;20179;-73
2023/11/18 11:00:03;;;;;;;25.13;16.10;;;7.70;99.90;;;;;;5052518;28;20227;-72
2023/11/18 11:02:38;;;;;;;30.77;18.37;;;7.70;99.90;;;;;;5053131;28;20228;-71
2023/11/18 11:05:03;;;;;;;28.73;17.30;;;7.70;99.90;;;;;;5052820;28;20898;-71
2023/11/18 11:07:32;;;;;;;24.27;17.53;;;7.70;99.90;;;;;;5052921;28;20301;-72
2023/11/18 11:09:59;;;;;;;29.27;16.50;;;7.70;99.90;;;;;;5052086;28;20207;-72
2023/11/18 11:12:29;;;;;;;25.97;16.73;;;7.70;99.90;;;;;;5052654;28;20171;-71
2023/11/18 11:15:29;;;;;;;24.20;15.50;;;7.70;99.90;;;;;;5052429;28;20175;-71
2023/11/18 11:18:08;;;;;;;26.90;16.40;;;7.70;99.90;;;;;;5019648;28;20203;-72
2023/11/18 11:20:43;;;;;;;27.03;15.77;;;7.70;99.90;;;;;;5052518;28;20565;-72
2023/11/18 11:23:27;;;;;;;23.63;16.50;;;7.70;99.90;;;;;;5052535;28;20174;-72
2023/11/18 11:26:08;;;;;;;29.83;17.30;;;7.70;99.90;;;;;;5052846;28;20541;-72
2023/11/18 11:28:50;;;;;;;26.67;16.50;;;7.70;99.90;;;;;;5052088;28;20183;-71
2023/11/18 11:31:22;;;;;;;29.13;18.23;;;7.70;99.90;;;;;;5050237;28;20214;-71
2023/11/18 11:34:07;;;;;;;28.30;17.07;;;7.70;99.90;;;;;;5032659;28;20179;-71
2023/11/18 11:36:46;;;;;;;25.87;15.87;;;7.70;99.90;;;;;;5042678;28;20170;-73
2023/11/18 11:39:16;;;;;;;25.23;17.03;;;7.70;99.90;;;;;;5052791;28;20166;-72
2023/11/18 11:41:45;;;;;;;21.43;15.03;;;7.70;99.90;;;;;;5052791;28;20599;-72
2023/11/18 11:44:14;;;;;;;22.87;16.60;;;7.70;99.90;;;;;;5052637;28;20179;-73
2023/11/18 11:46:41;;;;;;;24.03;15.27;;;7.80;99.90;;;;;;5052506;28;20564;-72
2023/11/18 11:49:20;;;;;;;26.60;15.80;;;7.80;99.90;;;;;;5051714;28;20167;-73
2023/11/18 11:51:55;;;;;;;28.83;16.80;;;7.80;99.90;;;;;;5051591;28;20263;-72
2023/11/18 11:54:28;;;;;;;28.57;16.23;;;7.80;99.90;;;;;;5051591;28;20206;-72
2023/11/18 11:56:59;;;;;;;22.47;15.60;;;7.80;99.90;;;;;;5051326;28;20228;-72
2023/11/18 11:59:46;;;;;;;19.87;15.30;;;7.80;99.90;;;;;;5051736;28;20520;-73
2023/11/18 12:02:22;;;;;;;27.03;16.23;;;7.80;99.90;;;;;;5051495;28;20235;-72
2023/11/18 12:04:53;;;;;;;25.00;16.07;;;7.80;99.90;;;;;;5033380;28;20197;-71
2023/11/18 12:07:20;;;;;;;26.07;16.57;;;7.90;99.90;;;;;;5051633;28;20183;-72
2023/11/18 12:09:47;;;;;;;32.63;16.73;;;7.90;99.90;;;;;;5050621;28;20212;-73
2023/11/18 12:12:20;;;;;;;19.90;13.83;;;7.90;99.90;;;;;;5051921;28;20206;-73
2023/11/18 12:15:17;;;;;;;20.23;14.40;;;7.90;99.90;;;;;;5050624;28;20166;-73
2023/11/18 12:17:55;;;;;;;21.77;15.37;;;8.00;99.90;;;;;;5051330;28;20167;-73
2023/11/18 12:20:53;;;;;;;20.00;13.83;;;8.00;99.90;;;;;;5051262;28;20197;-72
2023/11/18 12:23:23;;;;;;;21.37;13.30;;;8.00;99.90;;;;;;5051188;28;20182;-73
2023/11/18 12:25:53;;;;;;;19.37;13.17;;;8.10;99.90;;;;;;5051183;28;20179;-73
2023/11/18 12:28:34;;;;;;;20.70;15.03;;;8.10;99.90;;;;;;5051272;28;20198;-73
2023/11/18 12:31:13;;;;;;;21.23;13.60;;;8.20;99.90;;;;;;5051006;28;20210;-72
2023/11/18 12:33:50;;;;;;;20.07;13.30;;;8.20;99.90;;;;;;5051183;28;20674;-72
2023/11/18 12:36:33;;;;;;;20.07;13.70;;;8.20;99.90;;;;;;5050968;28;20174;-72
2023/11/18 12:39:18;;;;;;;16.37;13.23;;;8.20;99.90;;;;;;5050660;28;20175;-73
2023/11/18 12:41:55;;;;;;;19.37;13.47;;;8.20;99.90;;;;;;5051344;28;20194;-73